createdAt,value
2022-08-04T00:03:20.538Z,100.00
2022-08-04T00:08:35.314Z,100.00
2022-08-04T00:14:02.329Z,100.00
2022-08-04T00:19:06.499Z,100.00
2022-08-04T00:24:13.452Z,100.00
2022-08-04T00:29:16.965Z,100.00
2022-08-04T00:34:20.890Z,100.00
2022-08-04T00:39:26.686Z,100.00
2022-08-04T00:44:41.156Z,100.00
2022-08-04T00:50:04.843Z,100.00
2022-08-04T00:55:33.990Z,100.00
2022-08-04T01:00:47.499Z,100.00
2022-08-04T01:06:02.261Z,100.00
2022-08-04T01:11:20.262Z,100.00
2022-08-04T01:16:27.220Z,100.00
2022-08-04T01:22:00.889Z,100.00
2022-08-04T01:27:10.583Z,100.00
2022-08-04T01:32:25.524Z,100.00
2022-08-04T01:37:48.694Z,100.00
2022-08-04T01:42:54.650Z,100.00
2022-08-04T01:47:59.652Z,100.00
2022-08-04T01:53:04.923Z,100.00
2022-08-04T01:58:09.520Z,100.00
2022-08-04T02:03:15.170Z,100.00
2022-08-04T02:08:22.968Z,100.00
2022-08-04T02:13:40.099Z,100.00
2022-08-04T02:18:56.275Z,100.00
2022-08-04T02:24:02.808Z,100.00
2022-08-04T02:29:15.125Z,100.00
2022-08-04T02:34:29.231Z,100.00
2022-08-04T02:39:48.515Z,100.00
2022-08-04T02:44:53.392Z,100.00
2022-08-04T02:49:59.432Z,100.00
2022-08-04T02:55:04.136Z,100.00
2022-08-04T03:00:10.143Z,100.00
2022-08-04T03:05:19.224Z,100.00
2022-08-04T03:10:41.945Z,100.00
2022-08-04T03:16:11.752Z,100.00
2022-08-04T03:21:40.377Z,100.00
2022-08-04T03:27:04.982Z,100.00
2022-08-04T03:32:34.737Z,100.00
2022-08-04T03:38:23.567Z,100.00
2022-08-04T03:43:59.987Z,100.00
2022-08-04T03:49:31.451Z,100.00
2022-08-04T03:55:19.568Z,100.00
2022-08-04T04:00:32.125Z,100.00
2022-08-04T04:06:00.015Z,100.00
2022-08-04T04:11:31.390Z,100.00
2022-08-04T04:16:59.137Z,100.00
2022-08-04T04:22:25.748Z,100.00
2022-08-04T04:27:43.565Z,100.00
2022-08-04T04:33:16.271Z,100.00
2022-08-04T04:38:52.822Z,100.00
2022-08-04T04:44:21.241Z,100.00
2022-08-04T04:49:32.763Z,100.00
2022-08-04T04:54:46.887Z,100.00
2022-08-04T04:59:56.941Z,100.00
2022-08-04T05:05:22.440Z,100.00
2022-08-04T05:10:40.771Z,100.00
2022-08-04T05:15:47.579Z,100.00
2022-08-04T05:20:57.753Z,100.00
2022-08-04T05:26:07.618Z,100.00
2022-08-04T05:31:13.244Z,100.00
2022-08-04T05:36:35.407Z,100.00
2022-08-04T05:41:48.153Z,100.00
2022-08-04T05:47:00.430Z,100.00
2022-08-04T05:52:07.634Z,100.00
2022-08-04T05:57:12.057Z,100.00
2022-08-04T06:02:18.334Z,100.00
2022-08-04T06:07:23.326Z,100.00
2022-08-04T06:12:31.214Z,100.00
2022-08-04T06:18:32.625Z,100.00
2022-08-04T06:23:09.782Z,100.00
2022-08-04T06:28:15.161Z,100.00
2022-08-04T06:33:27.514Z,100.00
2022-08-04T06:38:35.846Z,100.00
2022-08-04T06:43:42.889Z,100.00
2022-08-04T06:48:48.585Z,100.00
2022-08-04T06:53:53.700Z,100.00
2022-08-04T06:58:59.141Z,100.00
2022-08-04T07:04:02.793Z,100.00
2022-08-04T07:09:09.059Z,100.00
2022-08-04T07:14:13.145Z,100.00
2022-08-04T07:19:19.117Z,100.00
2022-08-04T07:24:30.925Z,100.00
2022-08-04T07:29:35.857Z,100.00
2022-08-04T07:34:40.171Z,100.00
2022-08-04T07:39:48.667Z,100.00
2022-08-04T07:44:52.631Z,100.00
2022-08-04T07:49:58.126Z,94.47
2022-08-04T07:55:04.240Z,87.47
2022-08-04T08:00:09.095Z,79.05
2022-08-04T08:05:17.998Z,68.63
2022-08-04T08:10:24.250Z,66.32
2022-08-04T08:15:27.782Z,57.64
2022-08-04T08:20:32.557Z,58.60
2022-08-04T08:25:37.899Z,61.58
2022-08-04T08:30:41.902Z,56.01
2022-08-04T08:35:54.948Z,54.42
2022-08-04T08:41:30.884Z,51.89
2022-08-04T08:46:54.247Z,48.15
2022-08-04T08:52:11.272Z,47.08
2022-08-04T08:57:59.381Z,48.57
2022-08-04T09:03:42.546Z,47.54
2022-08-04T09:09:05.418Z,47.40
2022-08-04T09:14:18.602Z,50.05
2022-08-04T09:19:38.861Z,51.35
2022-08-04T09:24:51.961Z,54.28
2022-08-04T09:30:04.145Z,57.50
2022-08-04T09:35:19.081Z,59.47
2022-08-04T09:40:31.193Z,62.00
2022-08-04T09:46:02.058Z,65.76
2022-08-04T09:51:25.234Z,64.65
2022-08-04T09:56:59.178Z,64.68
2022-08-04T10:02:08.825Z,66.14
2022-08-04T10:07:28.500Z,65.42
2022-08-04T10:12:41.396Z,65.53
2022-08-04T10:18:10.504Z,66.41
2022-08-04T10:23:27.146Z,67.59
2022-08-04T10:28:32.264Z,68.75
2022-08-04T10:33:44.193Z,70.84
2022-08-04T10:38:57.994Z,74.03
2022-08-04T10:44:14.641Z,76.75
2022-08-04T10:49:25.103Z,78.36
2022-08-04T10:54:30.687Z,84.42
2022-08-04T10:59:40.537Z,88.39
2022-08-04T11:04:49.741Z,97.12
2022-08-04T11:09:53.842Z,100.00
2022-08-04T11:15:04.252Z,100.00
2022-08-04T11:20:34.435Z,100.00
2022-08-04T11:25:52.129Z,100.00
2022-08-04T11:31:00.317Z,100.00
2022-08-04T11:36:11.158Z,100.00
2022-08-04T11:41:20.759Z,100.00
2022-08-04T11:46:30.243Z,100.00
2022-08-04T11:51:36.588Z,100.00
2022-08-04T11:56:40.149Z,100.00
2022-08-04T12:02:03.676Z,100.00
2022-08-04T12:07:37.513Z,100.00
2022-08-04T12:12:47.269Z,100.00
2022-08-04T12:18:03.633Z,100.00
2022-08-04T12:23:16.915Z,100.00
2022-08-04T12:28:28.227Z,100.00
2022-08-04T12:34:05.349Z,100.00
2022-08-04T12:39:10.555Z,100.00
2022-08-04T12:44:36.394Z,100.00
2022-08-04T12:49:42.963Z,100.00
2022-08-04T12:54:56.845Z,100.00
2022-08-04T13:00:00.451Z,100.00
2022-08-04T13:05:07.857Z,100.00
2022-08-04T13:10:18.283Z,100.00
2022-08-04T13:15:23.880Z,100.00
2022-08-04T13:20:29.513Z,100.00
2022-08-04T13:26:45.251Z,100.00
2022-08-04T13:31:06.508Z,100.00
2022-08-04T13:36:11.124Z,100.00
2022-08-04T13:41:18.436Z,100.00
2022-08-04T13:46:28.325Z,98.68
2022-08-04T13:51:58.381Z,95.41
2022-08-04T13:57:01.659Z,88.76
2022-08-04T14:02:08.405Z,86.88
2022-08-04T14:07:20.896Z,83.70
2022-08-04T14:12:45.844Z,81.10
2022-08-04T14:17:50.070Z,77.83
2022-08-04T14:23:02.735Z,77.19
2022-08-04T14:28:07.710Z,76.30
2022-08-04T14:34:02.474Z,70.73
2022-08-04T14:38:49.218Z,66.75
2022-08-04T14:43:56.217Z,66.71
2022-08-04T14:49:10.284Z,68.58
2022-08-04T14:54:18.754Z,67.30
2022-08-04T14:59:24.734Z,69.33
2022-08-04T15:04:28.641Z,70.46
2022-08-04T15:09:32.937Z,73.58
2022-08-04T15:14:38.719Z,70.80
2022-08-04T15:19:55.705Z,70.06
2022-08-04T15:24:59.679Z,65.71
2022-08-04T15:30:06.531Z,67.82
2022-08-04T15:35:12.590Z,68.63
2022-08-04T15:40:27.105Z,64.57
2022-08-04T15:46:37.312Z,63.00
2022-08-04T15:51:30.490Z,64.38
2022-08-04T15:56:48.473Z,64.20
2022-08-04T16:02:47.322Z,62.44
2022-08-04T16:07:56.837Z,61.13
2022-08-04T16:13:06.346Z,60.03
2022-08-04T16:18:26.566Z,60.42
2022-08-04T16:24:00.742Z,59.44
2022-08-04T16:29:26.874Z,59.21
2022-08-04T16:34:48.902Z,59.59
2022-08-04T16:40:31.744Z,59.92
2022-08-04T16:45:44.413Z,60.92
2022-08-04T16:50:50.359Z,61.63
2022-08-04T16:55:58.192Z,60.95
2022-08-04T17:01:08.809Z,60.67
2022-08-04T17:06:15.006Z,59.54
2022-08-04T17:11:19.856Z,60.51
2022-08-04T17:16:25.351Z,59.50
2022-08-04T17:21:31.471Z,59.73
2022-08-04T17:26:39.981Z,59.62
2022-08-04T17:31:44.702Z,59.13
2022-08-04T17:36:48.633Z,59.90
2022-08-04T17:41:58.013Z,60.35
2022-08-04T17:47:24.340Z,59.71
2022-08-04T17:52:44.673Z,60.89
2022-08-04T17:58:13.535Z,61.64
2022-08-04T18:03:29.174Z,62.92
2022-08-04T18:08:45.775Z,64.62
2022-08-04T18:13:57.050Z,65.44
2022-08-04T18:19:11.315Z,65.91
2022-08-04T18:24:15.052Z,65.57
2022-08-04T18:29:31.613Z,67.04
2022-08-04T18:34:35.628Z,68.20
2022-08-04T18:40:17.437Z,68.69
2022-08-04T18:45:11.521Z,68.94
2022-08-04T18:50:59.424Z,70.04
2022-08-04T18:55:57.432Z,70.91
2022-08-04T19:01:03.538Z,70.67
2022-08-04T19:06:17.382Z,71.39
2022-08-04T19:11:54.154Z,72.94
2022-08-04T19:16:54.598Z,73.48
2022-08-04T19:22:02.708Z,73.97
2022-08-04T19:27:10.612Z,75.96
2022-08-04T19:32:16.566Z,76.39
2022-08-04T19:37:57.973Z,77.02
2022-08-04T19:42:44.012Z,78.94
2022-08-04T19:48:17.600Z,79.41
2022-08-04T19:53:19.006Z,81.67
2022-08-04T19:58:25.965Z,81.46
2022-08-04T20:04:09.719Z,83.54
2022-08-04T20:08:54.796Z,82.94
2022-08-04T20:14:00.708Z,83.88
2022-08-04T20:19:10.628Z,84.37
2022-08-04T20:24:38.987Z,84.43
2022-08-04T20:29:43.253Z,85.07
2022-08-04T20:34:51.578Z,85.02
2022-08-04T20:39:56.285Z,86.99
2022-08-04T20:44:59.773Z,87.63
2022-08-04T20:50:08.963Z,86.80
2022-08-04T20:55:12.994Z,87.74
2022-08-04T21:00:16.960Z,88.80
2022-08-04T21:05:21.950Z,89.75
2022-08-04T21:10:26.880Z,89.86
2022-08-04T21:15:59.289Z,90.55
2022-08-04T21:20:55.486Z,88.60
2022-08-04T21:26:02.076Z,88.78
2022-08-04T21:31:10.978Z,90.61
2022-08-04T21:36:27.278Z,91.56
2022-08-04T21:41:32.284Z,97.35
2022-08-04T21:46:42.494Z,100.00
2022-08-04T21:51:57.839Z,100.00
2022-08-04T21:57:03.432Z,100.00
2022-08-04T22:02:07.247Z,100.00
2022-08-04T22:07:12.735Z,100.00
2022-08-04T22:12:21.159Z,100.00
2022-08-04T22:17:26.104Z,100.00
2022-08-04T22:22:34.522Z,100.00
2022-08-04T22:27:55.641Z,100.00
2022-08-04T22:32:59.313Z,100.00
2022-08-04T22:38:06.372Z,100.00
2022-08-04T22:43:32.780Z,100.00
2022-08-04T22:48:39.322Z,100.00
2022-08-04T22:53:49.305Z,100.00
2022-08-04T22:58:52.867Z,100.00
2022-08-04T23:03:57.664Z,100.00
2022-08-04T23:09:02.495Z,100.00
2022-08-04T23:14:08.546Z,100.00
2022-08-04T23:19:15.440Z,100.00
2022-08-04T23:24:20.556Z,100.00
2022-08-04T23:29:24.022Z,100.00
2022-08-04T23:34:27.512Z,100.00
2022-08-04T23:39:42.225Z,100.00
2022-08-04T23:44:57.682Z,100.00
2022-08-04T23:50:01.349Z,100.00
2022-08-04T23:55:07.538Z,100.00
